createdAt,value
2022-12-19T00:01:17.546Z,2.03
2022-12-19T00:03:47.524Z,2.20
2022-12-19T00:06:18.841Z,2.30
2022-12-19T00:08:48.567Z,1.73
2022-12-19T00:11:19.868Z,2.30
2022-12-19T00:13:49.402Z,1.90
2022-12-19T00:16:20.068Z,1.47
2022-12-19T00:18:49.805Z,1.37
2022-12-19T00:21:22.087Z,1.93
2022-12-19T00:23:50.901Z,2.33
2022-12-19T00:26:21.452Z,1.80
2022-12-19T00:28:52.306Z,1.97
2022-12-19T00:31:21.880Z,1.87
2022-12-19T00:33:50.787Z,2.00
2022-12-19T00:36:23.158Z,1.77
2022-12-19T00:38:52.253Z,1.67
2022-12-19T00:41:22.655Z,1.70
2022-12-19T00:43:54.275Z,2.07
2022-12-19T00:46:22.955Z,2.30
2022-12-19T00:48:51.328Z,2.40
2022-12-19T00:51:24.545Z,2.10
2022-12-19T00:53:54.663Z,2.03
2022-12-19T00:56:25.522Z,1.90
2022-12-19T00:58:54.825Z,1.83
2022-12-19T01:01:25.393Z,2.20
2022-12-19T01:04:26.709Z,2.00
2022-12-19T01:06:44.434Z,2.13
2022-12-19T01:09:14.187Z,2.07
2022-12-19T01:12:00.032Z,1.97
2022-12-19T01:14:28.864Z,2.57
2022-12-19T01:16:57.342Z,2.07
2022-12-19T01:19:25.644Z,2.40
2022-12-19T01:21:55.593Z,2.10
2022-12-19T01:24:23.804Z,2.43
2022-12-19T01:26:52.399Z,1.53
2022-12-19T01:29:21.105Z,2.30
2022-12-19T01:31:49.393Z,1.67
2022-12-19T01:34:18.072Z,1.80
2022-12-19T01:36:46.681Z,1.77
2022-12-19T01:39:16.431Z,1.93
2022-12-19T01:41:44.839Z,2.20
2022-12-19T01:44:13.585Z,2.37
2022-12-19T01:46:44.687Z,2.40
2022-12-19T01:49:22.036Z,2.00
2022-12-19T01:51:55.293Z,2.40
2022-12-19T01:54:31.268Z,2.20
2022-12-19T01:57:02.450Z,2.97
2022-12-19T01:59:36.494Z,2.00
2022-12-19T02:02:11.559Z,2.90
2022-12-19T02:04:44.166Z,2.97
2022-12-19T02:07:15.951Z,2.50
2022-12-19T02:09:47.691Z,2.50
2022-12-19T02:12:22.080Z,2.10
2022-12-19T02:14:50.823Z,2.30
2022-12-19T02:17:29.900Z,1.93
2022-12-19T02:20:30.519Z,2.90
2022-12-19T02:23:16.409Z,2.17
2022-12-19T02:26:01.515Z,2.70
2022-12-19T02:29:05.452Z,2.53
2022-12-19T02:31:38.079Z,2.60
2022-12-19T02:34:11.820Z,2.80
2022-12-19T02:36:45.452Z,2.73
2022-12-19T02:39:20.521Z,2.90
2022-12-19T02:41:52.506Z,2.07
2022-12-19T02:44:27.470Z,2.70
2022-12-19T02:46:59.965Z,2.53
2022-12-19T02:49:31.328Z,2.30
2022-12-19T02:52:09.612Z,2.30
2022-12-19T02:54:44.906Z,2.60
2022-12-19T02:57:21.151Z,2.43
2022-12-19T03:00:04.277Z,2.17
2022-12-19T03:02:40.816Z,2.07
2022-12-19T03:05:18.316Z,2.97
2022-12-19T03:07:54.415Z,2.47
2022-12-19T03:10:29.930Z,2.70
2022-12-19T03:13:02.419Z,2.17
2022-12-19T03:15:31.370Z,2.57
2022-12-19T03:18:02.640Z,2.40
2022-12-19T03:20:47.498Z,2.00
2022-12-19T03:23:16.682Z,2.47
2022-12-19T03:25:49.908Z,1.83
2022-12-19T03:28:23.024Z,2.20
2022-12-19T03:30:53.034Z,2.30
2022-12-19T03:33:25.206Z,2.30
2022-12-19T03:35:55.385Z,2.33
2022-12-19T03:38:24.363Z,1.87
2022-12-19T03:40:53.602Z,2.20
2022-12-19T03:43:24.519Z,2.40
2022-12-19T03:45:57.601Z,2.10
2022-12-19T03:48:32.424Z,2.40
2022-12-19T03:51:09.377Z,2.50
2022-12-19T03:53:49.862Z,2.23
2022-12-19T03:56:24.316Z,2.13
2022-12-19T03:58:57.914Z,2.20
2022-12-19T04:01:27.589Z,2.47
2022-12-19T04:03:59.923Z,2.60
2022-12-19T04:06:31.530Z,2.40
2022-12-19T04:09:01.408Z,2.30
2022-12-19T04:11:35.543Z,2.10
2022-12-19T04:14:07.250Z,2.13
2022-12-19T04:16:44.288Z,1.80
2022-12-19T04:19:20.936Z,2.03
2022-12-19T04:21:54.781Z,2.13
2022-12-19T04:24:27.058Z,2.50
2022-12-19T04:26:58.470Z,2.07
2022-12-19T04:29:29.858Z,2.50
2022-12-19T04:31:58.450Z,2.60
2022-12-19T04:34:28.061Z,2.70
2022-12-19T04:36:56.670Z,3.67
2022-12-19T04:39:24.935Z,4.17
2022-12-19T04:41:53.682Z,3.60
2022-12-19T04:44:22.442Z,3.43
2022-12-19T04:46:51.119Z,4.23
2022-12-19T04:49:19.533Z,4.20
2022-12-19T04:51:49.116Z,5.63
2022-12-19T04:54:17.865Z,5.20
2022-12-19T04:56:46.057Z,5.80
2022-12-19T04:59:14.693Z,7.10
2022-12-19T05:01:43.333Z,6.90
2022-12-19T05:04:11.658Z,8.13
2022-12-19T05:06:40.293Z,7.23
2022-12-19T05:09:12.015Z,8.40
2022-12-19T05:11:40.358Z,9.20
2022-12-19T05:14:08.979Z,9.80
2022-12-19T05:16:37.524Z,10.73
2022-12-19T05:19:06.551Z,11.20
2022-12-19T05:21:35.197Z,9.83
2022-12-19T05:24:04.016Z,10.03
2022-12-19T05:26:33.664Z,9.50
2022-12-19T05:29:02.264Z,10.73
2022-12-19T05:31:30.860Z,10.43
2022-12-19T05:34:00.541Z,11.97
2022-12-19T05:36:32.419Z,12.80
2022-12-19T05:39:01.478Z,12.37
2022-12-19T05:41:29.742Z,9.67
2022-12-19T05:43:59.707Z,10.87
2022-12-19T05:46:28.566Z,10.70
2022-12-19T05:48:58.109Z,10.47
2022-12-19T05:51:26.685Z,11.10
2022-12-19T05:53:55.060Z,13.37
2022-12-19T05:56:24.468Z,11.07
2022-12-19T05:58:52.644Z,11.80
2022-12-19T06:01:24.051Z,7.60
2022-12-19T06:03:53.053Z,12.40
2022-12-19T06:06:23.767Z,12.57
2022-12-19T06:08:54.568Z,12.00
2022-12-19T06:11:23.344Z,13.27
2022-12-19T06:13:51.588Z,13.60
2022-12-19T06:16:24.362Z,11.83
2022-12-19T06:18:52.885Z,11.57
2022-12-19T06:21:22.625Z,11.13
2022-12-19T06:23:52.461Z,10.30
2022-12-19T06:26:22.577Z,12.57
2022-12-19T06:28:52.015Z,10.87
2022-12-19T06:31:21.719Z,10.63
2022-12-19T06:33:51.456Z,12.00
2022-12-19T06:36:23.669Z,13.30
2022-12-19T06:38:52.645Z,12.17
2022-12-19T06:41:39.068Z,12.40
2022-12-19T06:44:09.655Z,12.43
2022-12-19T06:46:39.427Z,12.17
2022-12-19T06:49:11.028Z,12.50
2022-12-19T06:51:40.566Z,11.37
2022-12-19T06:54:08.779Z,11.87
2022-12-19T06:56:38.823Z,11.20
2022-12-19T06:59:08.572Z,12.70
2022-12-19T07:01:46.944Z,11.90
2022-12-19T07:04:21.378Z,13.00
2022-12-19T07:06:50.999Z,13.27
2022-12-19T07:09:19.254Z,12.73
2022-12-19T07:11:47.511Z,12.10
2022-12-19T07:14:16.328Z,11.97
2022-12-19T07:16:44.605Z,13.03
2022-12-19T07:19:14.098Z,12.30
2022-12-19T07:21:44.629Z,12.60
2022-12-19T07:24:15.177Z,13.33
2022-12-19T07:26:44.648Z,15.83
2022-12-19T07:29:14.644Z,13.53
2022-12-19T07:31:44.007Z,11.33
2022-12-19T07:34:12.529Z,13.97
2022-12-19T07:36:41.212Z,11.57
2022-12-19T07:39:10.882Z,11.17
2022-12-19T07:41:39.940Z,11.07
2022-12-19T07:44:08.729Z,10.70
2022-12-19T07:46:36.939Z,10.10
2022-12-19T07:49:05.647Z,10.87
2022-12-19T07:51:34.116Z,6.10
2022-12-19T07:54:02.335Z,11.60
2022-12-19T07:56:32.231Z,9.00
2022-12-19T07:59:00.848Z,9.30
2022-12-19T08:01:29.814Z,8.07
2022-12-19T08:03:58.427Z,6.27
2022-12-19T08:06:28.002Z,3.97
2022-12-19T08:08:57.118Z,4.80
2022-12-19T08:11:27.981Z,5.10
2022-12-19T08:13:58.741Z,3.13
2022-12-19T08:16:29.617Z,3.60
2022-12-19T08:18:57.891Z,3.70
2022-12-19T08:21:26.369Z,4.03
2022-12-19T08:23:55.038Z,3.60
2022-12-19T08:26:25.944Z,4.20
2022-12-19T08:28:55.593Z,4.70
2022-12-19T08:31:27.242Z,4.57
2022-12-19T08:33:57.722Z,4.73
2022-12-19T08:36:26.157Z,2.93
2022-12-19T08:38:55.349Z,3.83
2022-12-19T08:41:23.850Z,3.40
2022-12-19T08:43:54.034Z,3.20
2022-12-19T08:46:24.983Z,3.67
2022-12-19T08:48:53.092Z,3.63
2022-12-19T08:51:21.441Z,3.00
2022-12-19T08:53:50.769Z,3.70
2022-12-19T08:56:20.404Z,3.43
2022-12-19T08:58:48.858Z,3.80
2022-12-19T09:01:20.377Z,3.57
2022-12-19T09:04:24.332Z,4.30
2022-12-19T09:06:39.717Z,2.90
2022-12-19T09:09:08.970Z,3.00
2022-12-19T09:11:45.919Z,3.80
2022-12-19T09:14:21.188Z,3.33
2022-12-19T09:16:50.260Z,3.30
2022-12-19T09:19:20.438Z,4.73
2022-12-19T09:21:48.580Z,2.90
2022-12-19T09:24:17.151Z,3.93
2022-12-19T09:26:46.640Z,2.10
2022-12-19T09:29:20.357Z,4.47
2022-12-19T09:31:53.914Z,4.70
2022-12-19T09:34:37.506Z,5.03
2022-12-19T09:37:08.753Z,4.90
2022-12-19T09:39:38.582Z,5.23
2022-12-19T09:42:41.603Z,5.97
2022-12-19T09:45:41.383Z,4.53
2022-12-19T09:48:23.892Z,6.17
2022-12-19T09:51:10.105Z,6.17
2022-12-19T09:53:53.689Z,6.00
2022-12-19T09:56:45.895Z,4.60
2022-12-19T09:59:23.035Z,5.40
2022-12-19T10:02:00.888Z,7.07
2022-12-19T10:04:33.673Z,7.27
2022-12-19T10:07:14.004Z,6.00
2022-12-19T10:11:44.941Z,4.60
2022-12-19T10:13:13.228Z,6.93
2022-12-19T10:16:00.240Z,5.87
2022-12-19T10:18:41.990Z,5.70
2022-12-19T10:21:17.501Z,7.63
2022-12-19T10:24:07.607Z,5.00
2022-12-19T10:26:43.923Z,7.03
2022-12-19T10:29:30.189Z,5.27
2022-12-19T10:32:06.301Z,8.67
2022-12-19T10:34:40.716Z,7.37
2022-12-19T10:37:26.690Z,6.87
2022-12-19T10:40:15.638Z,8.10
2022-12-19T10:42:56.191Z,7.67
2022-12-19T10:45:34.603Z,8.83
2022-12-19T10:48:03.011Z,8.13
2022-12-19T10:50:31.920Z,7.60
2022-12-19T10:53:11.610Z,7.50
2022-12-19T10:55:44.782Z,8.33
2022-12-19T10:58:19.985Z,7.80
2022-12-19T11:01:19.935Z,6.30
2022-12-19T11:03:52.964Z,7.13
2022-12-19T11:06:49.329Z,7.53
2022-12-19T11:09:30.069Z,8.10
2022-12-19T11:14:41.002Z,9.77
2022-12-19T11:21:18.915Z,7.87
2022-12-19T11:23:42.513Z,6.47
2022-12-19T11:29:27.404Z,9.37
2022-12-19T11:29:41.739Z,9.17
2022-12-19T11:30:35.709Z,8.50
2022-12-19T11:32:43.535Z,9.40
2022-12-19T11:35:24.931Z,9.20
2022-12-19T11:37:57.283Z,9.97
2022-12-19T11:40:34.683Z,9.50
2022-12-19T11:43:43.011Z,10.33
2022-12-19T11:46:03.592Z,9.73
2022-12-19T11:48:40.044Z,8.53
2022-12-19T11:51:19.062Z,10.37
2022-12-19T11:53:54.251Z,9.20
2022-12-19T11:56:25.575Z,9.90
2022-12-19T11:58:57.025Z,9.47
2022-12-19T12:01:42.290Z,9.20
2022-12-19T12:04:41.747Z,9.53
2022-12-19T12:07:15.497Z,8.67
2022-12-19T12:15:33.031Z,9.27
2022-12-19T12:19:16.587Z,9.30
2022-12-19T12:25:58.377Z,9.93
2022-12-19T12:31:04.473Z,10.13
2022-12-19T12:31:11.037Z,8.73
2022-12-19T12:31:50.627Z,9.00
2022-12-19T12:31:55.173Z,8.60
2022-12-19T12:35:30.667Z,8.63
2022-12-19T12:35:56.639Z,9.33
2022-12-19T12:40:05.595Z,9.30
2022-12-19T12:42:44.815Z,7.17
2022-12-19T12:45:21.555Z,8.73
2022-12-19T12:47:55.037Z,7.10
2022-12-19T12:50:27.427Z,9.60
2022-12-19T12:52:59.309Z,7.00
2022-12-19T12:55:31.586Z,6.67
2022-12-19T12:58:00.462Z,8.13
2022-12-19T13:00:29.728Z,9.03
2022-12-19T13:03:05.717Z,6.37
2022-12-19T13:05:41.602Z,9.67
2022-12-19T13:08:33.009Z,7.07
2022-12-19T13:11:03.468Z,8.57
2022-12-19T13:13:54.377Z,6.27
2022-12-19T13:16:52.917Z,6.87
2022-12-19T13:19:28.349Z,6.97
2022-12-19T13:22:23.845Z,6.87
2022-12-19T13:24:56.699Z,9.63
2022-12-19T13:27:41.673Z,6.07
2022-12-19T13:30:18.480Z,6.33
2022-12-19T13:33:16.435Z,7.87
2022-12-19T13:39:46.660Z,7.97
2022-12-19T13:39:58.317Z,6.63
2022-12-19T13:42:01.461Z,5.87
2022-12-19T13:44:30.226Z,9.60
2022-12-19T13:46:58.553Z,10.07
2022-12-19T13:49:34.839Z,8.67
2022-12-19T13:52:05.897Z,7.60
2022-12-19T13:54:39.115Z,9.30
2022-12-19T13:57:23.627Z,7.90
2022-12-19T14:00:00.322Z,8.53
2022-12-19T14:02:34.914Z,7.43
2022-12-19T14:05:34.000Z,6.20
2022-12-19T14:08:20.829Z,9.27
2022-12-19T14:11:47.878Z,9.10
2022-12-19T14:14:12.654Z,9.97
2022-12-19T14:16:45.788Z,9.03
2022-12-19T14:19:24.897Z,9.40
2022-12-19T14:22:04.511Z,10.27
2022-12-19T14:24:54.148Z,8.60
2022-12-19T14:28:18.039Z,8.23
2022-12-19T14:30:32.815Z,8.40
2022-12-19T14:33:46.640Z,9.43
2022-12-19T14:36:12.599Z,8.40
2022-12-19T14:39:24.576Z,10.40
2022-12-19T14:42:02.513Z,5.93
2022-12-19T14:52:08.147Z,6.10
2022-12-19T14:54:04.475Z,9.80
2022-12-19T14:54:18.342Z,6.17
2022-12-19T14:54:41.627Z,5.37
2022-12-19T14:56:36.282Z,10.23
2022-12-19T14:59:29.964Z,9.13
2022-12-19T15:02:13.124Z,7.90
2022-12-19T15:04:54.583Z,8.27
2022-12-19T15:07:28.027Z,9.07
2022-12-19T15:10:58.510Z,6.47
2022-12-19T15:14:52.914Z,8.00
2022-12-19T15:16:05.532Z,7.73
2022-12-19T15:18:42.910Z,6.67
2022-12-19T15:21:13.865Z,5.97
2022-12-19T15:23:42.340Z,9.23
2022-12-19T15:26:15.678Z,9.33
2022-12-19T15:28:47.469Z,6.47
2022-12-19T15:31:26.975Z,11.13
2022-12-19T15:36:45.304Z,6.30
2022-12-19T15:39:14.044Z,10.70
2022-12-19T15:41:43.138Z,8.10
2022-12-19T15:44:17.802Z,9.03
2022-12-19T15:46:49.294Z,8.83
2022-12-19T15:49:22.282Z,10.13
2022-12-19T15:51:50.960Z,9.77
2022-12-19T15:54:47.820Z,9.00
2022-12-19T15:57:10.415Z,8.23
2022-12-19T15:59:44.043Z,6.23
2022-12-19T16:02:18.805Z,10.70
2022-12-19T16:04:50.671Z,11.53
2022-12-19T16:07:21.392Z,10.03
2022-12-19T16:09:51.315Z,7.47
2022-12-19T16:12:23.099Z,5.30
2022-12-19T16:14:58.209Z,7.23
2022-12-19T16:17:28.354Z,7.33
2022-12-19T16:19:58.113Z,11.60
2022-12-19T16:22:28.538Z,9.07
2022-12-19T16:24:57.404Z,10.73
2022-12-19T16:27:28.121Z,9.53
2022-12-19T16:29:57.631Z,9.73
2022-12-19T16:32:26.149Z,9.63
2022-12-19T16:34:54.657Z,10.47
2022-12-19T16:37:31.774Z,10.73
2022-12-19T16:40:02.219Z,11.03
2022-12-19T16:42:31.126Z,10.47
2022-12-19T16:44:59.501Z,7.20
2022-12-19T16:47:27.877Z,7.53
2022-12-19T16:49:56.179Z,10.87
2022-12-19T16:52:25.795Z,7.67
2022-12-19T16:54:54.107Z,12.07
2022-12-19T16:57:23.478Z,10.50
2022-12-19T16:59:52.462Z,9.20
2022-12-19T17:02:40.682Z,10.67
2022-12-19T17:05:16.620Z,14.50
2022-12-19T17:07:46.984Z,10.07
2022-12-19T17:10:16.835Z,10.27
2022-12-19T17:12:48.170Z,8.10
2022-12-19T17:15:24.067Z,6.10
2022-12-19T17:17:55.591Z,8.60
2022-12-19T17:20:26.343Z,11.43
2022-12-19T17:22:56.063Z,11.67
2022-12-19T17:25:26.920Z,9.17
2022-12-19T17:27:58.078Z,10.43
2022-12-19T17:30:26.346Z,11.87
2022-12-19T17:32:56.587Z,11.93
2022-12-19T17:35:28.496Z,8.80
2022-12-19T17:37:59.610Z,7.70
2022-12-19T17:40:30.457Z,12.10
2022-12-19T17:42:59.686Z,10.67
2022-12-19T17:45:30.513Z,13.93
2022-12-19T17:48:03.382Z,13.50
2022-12-19T17:50:36.141Z,10.43
2022-12-19T17:53:06.242Z,7.53
2022-12-19T17:55:37.648Z,10.40
2022-12-19T17:58:06.254Z,6.03
2022-12-19T18:00:35.575Z,10.83
2022-12-19T18:03:20.128Z,9.97
2022-12-19T18:05:49.282Z,10.03
2022-12-19T18:08:31.497Z,10.40
2022-12-19T18:11:02.008Z,10.77
2022-12-19T18:13:31.963Z,9.53
2022-12-19T18:16:02.964Z,13.50
2022-12-19T18:18:34.669Z,17.20
2022-12-19T18:21:03.790Z,13.07
2022-12-19T18:23:33.555Z,10.93
2022-12-19T18:26:02.827Z,7.17
2022-12-19T18:28:31.804Z,13.40
2022-12-19T18:31:02.366Z,16.30
2022-12-19T18:33:38.107Z,15.10
2022-12-19T18:36:07.810Z,12.53
2022-12-19T18:38:37.860Z,14.63
2022-12-19T18:41:06.239Z,14.60
2022-12-19T18:43:34.372Z,14.90
2022-12-19T18:46:03.030Z,14.23
2022-12-19T18:48:34.321Z,14.37
2022-12-19T18:51:03.755Z,15.23
2022-12-19T18:53:35.540Z,11.70
2022-12-19T18:56:07.622Z,12.00
2022-12-19T18:58:36.848Z,13.07
2022-12-19T19:01:07.368Z,14.23
2022-12-19T19:03:38.867Z,9.73
2022-12-19T19:06:15.007Z,11.30
2022-12-19T19:08:43.606Z,14.97
2022-12-19T19:11:13.390Z,13.63
2022-12-19T19:13:41.594Z,10.23
2022-12-19T19:16:18.230Z,14.43
2022-12-19T19:18:47.648Z,15.73
2022-12-19T19:21:16.727Z,12.93
2022-12-19T19:23:47.508Z,12.30
2022-12-19T19:26:17.315Z,12.57
2022-12-19T19:28:51.693Z,12.47
2022-12-19T19:31:23.475Z,10.90
2022-12-19T19:33:56.311Z,12.23
2022-12-19T19:36:29.256Z,12.43
2022-12-19T19:38:58.377Z,11.80
2022-12-19T19:41:30.028Z,11.50
2022-12-19T19:44:00.202Z,8.97
2022-12-19T19:46:29.433Z,16.63
2022-12-19T19:48:58.274Z,14.10
2022-12-19T19:51:26.667Z,9.23
2022-12-19T19:53:55.574Z,12.57
2022-12-19T19:56:23.745Z,12.97
2022-12-19T19:58:55.322Z,16.13
2022-12-19T20:01:24.124Z,15.43
2022-12-19T20:03:52.770Z,14.70
2022-12-19T20:06:21.503Z,12.47
2022-12-19T20:08:51.425Z,15.37
2022-12-19T20:11:20.562Z,14.23
2022-12-19T20:13:49.054Z,8.17
2022-12-19T20:16:20.180Z,13.13
2022-12-19T20:18:50.547Z,10.67
2022-12-19T20:21:20.829Z,14.53
2022-12-19T20:23:49.300Z,12.17
2022-12-19T20:26:18.854Z,9.57
2022-12-19T20:28:50.089Z,13.27
2022-12-19T20:31:21.192Z,14.13
2022-12-19T20:33:50.476Z,13.13
2022-12-19T20:36:19.286Z,15.17
2022-12-19T20:38:48.047Z,12.07
2022-12-19T20:41:16.610Z,12.23
2022-12-19T20:43:44.876Z,13.90
2022-12-19T20:46:15.684Z,11.27
2022-12-19T20:48:46.208Z,12.27
2022-12-19T20:51:15.791Z,10.07
2022-12-19T20:53:44.454Z,10.30
2022-12-19T20:56:15.560Z,12.80
2022-12-19T20:58:43.994Z,12.93
2022-12-19T21:01:14.874Z,17.83
2022-12-19T21:03:48.273Z,9.37
2022-12-19T21:06:18.816Z,12.63
2022-12-19T21:08:47.219Z,18.47
2022-12-19T21:11:16.559Z,14.20
2022-12-19T21:13:45.770Z,11.87
2022-12-19T21:16:16.158Z,19.37
2022-12-19T21:18:47.768Z,20.43
2022-12-19T21:21:18.923Z,14.10
2022-12-19T21:23:47.438Z,16.83
2022-12-19T21:26:15.861Z,18.13
2022-12-19T21:28:44.650Z,19.07
2022-12-19T21:31:17.267Z,13.33
2022-12-19T21:33:47.499Z,18.90
2022-12-19T21:36:19.244Z,13.97
2022-12-19T21:38:48.422Z,15.53
2022-12-19T21:41:19.222Z,16.47
2022-12-19T21:43:49.049Z,13.93
2022-12-19T21:46:18.489Z,15.57
2022-12-19T21:48:50.175Z,15.70
2022-12-19T21:51:20.736Z,16.20
2022-12-19T21:53:49.747Z,10.17
2022-12-19T21:56:24.933Z,14.77
2022-12-19T21:58:55.101Z,10.43
2022-12-19T22:01:24.147Z,10.50
2022-12-19T22:03:55.209Z,16.73
2022-12-19T22:06:28.368Z,15.07
2022-12-19T22:08:57.618Z,12.93
2022-12-19T22:11:26.438Z,12.07
2022-12-19T22:13:54.992Z,16.10
2022-12-19T22:16:24.042Z,15.57
2022-12-19T22:18:55.046Z,14.33
2022-12-19T22:21:23.508Z,13.10
2022-12-19T22:23:58.137Z,13.47
2022-12-19T22:26:27.832Z,10.50
2022-12-19T22:28:57.850Z,10.77
2022-12-19T22:31:28.176Z,13.87
2022-12-19T22:33:59.426Z,15.47
2022-12-19T22:36:31.908Z,11.70
2022-12-19T22:39:01.190Z,13.53
2022-12-19T22:41:30.277Z,15.17
2022-12-19T22:43:58.634Z,13.17
2022-12-19T22:46:30.850Z,14.53
2022-12-19T22:49:02.816Z,12.07
2022-12-19T22:51:33.363Z,9.37
2022-12-19T22:54:01.709Z,10.83
2022-12-19T22:56:32.021Z,13.13
2022-12-19T22:59:02.087Z,12.27
2022-12-19T23:01:33.099Z,8.27
2022-12-19T23:04:03.559Z,12.37
2022-12-19T23:06:34.288Z,7.13
2022-12-19T23:09:02.681Z,11.47
2022-12-19T23:11:33.812Z,10.23
2022-12-19T23:14:02.776Z,9.67
2022-12-19T23:16:31.379Z,9.70
2022-12-19T23:18:59.694Z,10.90
2022-12-19T23:21:29.991Z,13.60
2022-12-19T23:23:58.296Z,8.47
2022-12-19T23:26:28.649Z,14.03
2022-12-19T23:28:58.785Z,12.37
2022-12-19T23:31:28.283Z,11.70
2022-12-19T23:33:57.026Z,12.70
2022-12-19T23:37:08.217Z,11.23
2022-12-19T23:39:16.112Z,10.90
2022-12-19T23:41:44.878Z,12.57
2022-12-19T23:44:13.251Z,12.07
2022-12-19T23:46:41.495Z,14.63
2022-12-19T23:49:10.063Z,14.77
2022-12-19T23:51:38.396Z,10.03
2022-12-19T23:54:08.681Z,12.00
2022-12-19T23:56:39.266Z,13.33
2022-12-19T23:59:07.540Z,8.50
